createdAt,value
2018-08-22T00:00:15.806Z,18.64
2018-08-22T00:01:15.484Z,18.65
2018-08-22T00:02:15.472Z,18.64
2018-08-22T00:03:15.518Z,18.59
2018-08-22T00:04:16.250Z,18.55
2018-08-22T00:05:15.778Z,18.49
2018-08-22T00:06:15.597Z,18.58
2018-08-22T00:07:15.534Z,18.49
2018-08-22T00:08:15.399Z,18.59
2018-08-22T00:09:15.512Z,18.44
2018-08-22T00:10:15.344Z,18.36
2018-08-22T00:11:15.603Z,18.47
2018-08-22T00:12:15.625Z,18.37
2018-08-22T00:13:15.312Z,18.49
2018-08-22T00:14:15.443Z,18.43
2018-08-22T00:15:15.500Z,18.28
2018-08-22T00:16:15.360Z,18.40
2018-08-22T00:17:15.506Z,18.42
2018-08-22T00:18:15.327Z,18.36
2018-08-22T00:19:15.558Z,18.31
2018-08-22T00:20:15.257Z,18.33
2018-08-22T00:21:15.223Z,18.31
2018-08-22T00:22:15.711Z,18.25
2018-08-22T00:23:15.281Z,18.27
2018-08-22T00:24:15.905Z,18.27
2018-08-22T00:25:15.610Z,18.19
2018-08-22T00:26:15.335Z,18.22
2018-08-22T00:27:15.297Z,18.22
2018-08-22T00:28:15.298Z,18.22
2018-08-22T00:29:15.378Z,18.25
2018-08-22T00:30:15.617Z,18.33
2018-08-22T00:31:15.097Z,18.18
2018-08-22T00:32:15.533Z,18.19
2018-08-22T00:33:15.071Z,18.22
2018-08-22T00:34:15.059Z,18.19
2018-08-22T00:35:15.061Z,18.09
2018-08-22T00:36:15.103Z,18.21
2018-08-22T00:37:15.556Z,18.09
2018-08-22T00:38:15.680Z,18.07
2018-08-22T00:39:15.079Z,18.12
2018-08-22T00:40:15.039Z,17.99
2018-08-22T00:41:15.023Z,18.06
2018-08-22T00:42:14.987Z,17.95
2018-08-22T00:43:14.954Z,18.07
2018-08-22T00:44:15.320Z,18.06
2018-08-22T00:45:15.539Z,18.04
2018-08-22T00:46:15.439Z,17.99
2018-08-22T00:47:14.928Z,18.04
2018-08-22T00:48:14.900Z,17.89
2018-08-22T00:49:14.879Z,18.00
2018-08-22T00:50:14.870Z,17.94
2018-08-22T00:51:14.861Z,17.99
2018-08-22T00:52:14.868Z,17.94
2018-08-22T00:53:14.836Z,17.92
2018-08-22T00:54:14.828Z,17.95
2018-08-22T00:55:14.812Z,17.91
2018-08-22T00:56:14.803Z,17.92
2018-08-22T00:57:14.818Z,17.84
2018-08-22T00:58:14.785Z,17.95
2018-08-22T00:59:14.770Z,17.85
2018-08-22T01:00:14.762Z,18.00
2018-08-22T01:01:14.751Z,17.91
2018-08-22T01:02:14.780Z,17.91
2018-08-22T01:03:14.719Z,17.94
2018-08-22T01:04:14.706Z,17.95
2018-08-22T01:05:14.705Z,17.88
2018-08-22T01:06:14.685Z,17.89
2018-08-22T01:07:14.706Z,17.94
2018-08-22T01:08:14.670Z,17.91
2018-08-22T01:09:14.654Z,17.99
2018-08-22T01:10:14.639Z,17.97
2018-08-22T01:11:14.630Z,17.91
2018-08-22T01:12:14.642Z,17.95
2018-08-22T01:13:14.604Z,17.91
2018-08-22T01:14:14.590Z,18.04
2018-08-22T01:15:14.581Z,18.02
2018-08-22T01:16:14.565Z,17.95
2018-08-22T01:17:14.586Z,17.91
2018-08-22T01:18:14.548Z,17.84
2018-08-22T01:19:14.535Z,18.02
2018-08-22T01:20:14.527Z,17.95
2018-08-22T01:21:14.507Z,17.99
2018-08-22T01:22:14.523Z,17.99
2018-08-22T01:23:14.494Z,17.94
2018-08-22T01:24:14.481Z,17.91
2018-08-22T01:25:14.470Z,18.03
2018-08-22T01:26:14.453Z,17.88
2018-08-22T01:27:14.467Z,17.89
2018-08-22T01:28:14.431Z,17.94
2018-08-22T01:29:14.417Z,17.87
2018-08-22T01:30:14.441Z,17.84
2018-08-22T01:31:14.388Z,17.91
2018-08-22T01:32:14.378Z,17.89
2018-08-22T01:33:14.370Z,17.92
2018-08-22T01:34:14.362Z,17.85
2018-08-22T01:35:14.340Z,17.94
2018-08-22T01:36:14.359Z,17.89
2018-08-22T01:37:14.318Z,17.85
2018-08-22T01:38:14.304Z,17.76
2018-08-22T01:39:14.301Z,17.73
2018-08-22T01:40:14.284Z,17.81
2018-08-22T01:41:14.299Z,17.79
2018-08-22T01:42:14.266Z,17.81
2018-08-22T01:43:14.253Z,17.84
2018-08-22T01:44:14.234Z,17.70
2018-08-22T01:45:14.228Z,17.79
2018-08-22T01:46:14.250Z,17.76
2018-08-22T01:47:14.202Z,17.73
2018-08-22T01:48:14.193Z,17.73
2018-08-22T01:49:14.177Z,17.70
2018-08-22T01:50:14.168Z,17.64
2018-08-22T01:51:14.155Z,17.62
2018-08-22T01:52:14.168Z,17.59
2018-08-22T01:53:14.136Z,17.57
2018-08-22T01:54:14.120Z,17.54
2018-08-22T01:55:14.113Z,17.62
2018-08-22T01:56:14.100Z,17.67
2018-08-22T01:57:14.115Z,17.63
2018-08-22T01:58:14.076Z,17.50
2018-08-22T01:59:14.067Z,17.51
2018-08-22T02:00:14.050Z,17.54
2018-08-22T02:01:14.041Z,17.46
2018-08-22T02:02:14.050Z,17.51
2018-08-22T02:03:14.019Z,17.54
2018-08-22T02:04:14.003Z,17.47
2018-08-22T02:05:13.995Z,17.50
2018-08-22T02:06:13.980Z,17.43
2018-08-22T02:07:14.004Z,17.53
2018-08-22T02:08:13.962Z,17.47
2018-08-22T02:09:13.946Z,17.43
2018-08-22T02:10:13.936Z,17.47
2018-08-22T02:11:13.926Z,17.48
2018-08-22T02:12:13.911Z,17.44
2018-08-22T02:13:13.918Z,17.47
2018-08-22T02:14:13.893Z,17.33
2018-08-22T02:15:13.880Z,17.30
2018-08-22T02:16:13.870Z,17.40
2018-08-22T02:17:13.880Z,17.40
2018-08-22T02:18:13.841Z,17.38
2018-08-22T02:19:13.837Z,17.46
2018-08-22T02:20:13.817Z,17.38
2018-08-22T02:21:13.812Z,17.30
2018-08-22T02:22:13.817Z,17.23
2018-08-22T02:23:13.790Z,17.23
2018-08-22T02:24:13.781Z,17.20
2018-08-22T02:25:13.844Z,17.23
2018-08-22T02:26:13.756Z,17.26
2018-08-22T02:27:13.737Z,17.20
2018-08-22T02:28:13.762Z,17.22
2018-08-22T02:29:13.716Z,17.26
2018-08-22T02:30:13.707Z,17.20
2018-08-22T02:31:13.693Z,17.22
2018-08-22T02:32:13.680Z,17.22
2018-08-22T02:33:13.672Z,17.26
2018-08-22T02:34:13.683Z,17.20
2018-08-22T02:35:13.652Z,17.18
2018-08-22T02:36:13.636Z,17.23
2018-08-22T02:37:13.626Z,17.15
2018-08-22T02:38:13.613Z,17.18
2018-08-22T02:39:13.634Z,17.11
2018-08-22T02:40:13.590Z,17.20
2018-08-22T02:41:13.576Z,17.11
2018-08-22T02:42:13.569Z,17.18
2018-08-22T02:43:13.552Z,17.17
2018-08-22T02:44:13.541Z,17.14
2018-08-22T02:45:13.564Z,17.07
2018-08-22T02:46:13.521Z,17.20
2018-08-22T02:47:13.510Z,17.13
2018-08-22T02:48:13.500Z,17.11
2018-08-22T02:49:13.483Z,17.11
2018-08-22T02:50:13.475Z,17.10
2018-08-22T02:51:13.496Z,17.04
2018-08-22T02:52:13.452Z,17.03
2018-08-22T02:53:13.437Z,17.00
2018-08-22T02:54:13.422Z,17.11
2018-08-22T02:55:13.420Z,16.99
2018-08-22T02:56:13.404Z,16.93
2018-08-22T02:57:13.417Z,16.95
2018-08-22T02:58:13.388Z,16.99
2018-08-22T02:59:13.365Z,16.93
2018-08-22T03:00:13.359Z,16.92
2018-08-22T03:01:13.350Z,16.98
2018-08-22T03:02:13.363Z,16.86
2018-08-22T03:03:13.328Z,16.96
2018-08-22T03:04:13.311Z,16.95
2018-08-22T03:05:13.300Z,16.92
2018-08-22T03:06:13.290Z,16.77
2018-08-22T03:07:13.302Z,16.95
2018-08-22T03:08:13.269Z,16.78
2018-08-22T03:09:13.249Z,16.89
2018-08-22T03:10:13.270Z,16.93
2018-08-22T03:11:13.226Z,16.88
2018-08-22T03:12:13.248Z,16.96
2018-08-22T03:13:13.212Z,16.95
2018-08-22T03:14:13.191Z,16.93
2018-08-22T03:15:13.192Z,16.95
2018-08-22T03:16:13.182Z,16.85
2018-08-22T03:17:13.156Z,16.99
2018-08-22T03:18:13.177Z,16.95
2018-08-22T03:19:13.140Z,16.93
2018-08-22T03:20:13.128Z,16.95
2018-08-22T03:21:13.114Z,16.95
2018-08-22T03:22:13.099Z,16.99
2018-08-22T03:23:13.128Z,16.98
2018-08-22T03:24:13.078Z,17.03
2018-08-22T03:25:13.073Z,17.04
2018-08-22T03:26:13.081Z,17.03
2018-08-22T03:27:13.045Z,17.04
2018-08-22T03:28:13.038Z,17.14
2018-08-22T03:29:13.051Z,17.20
2018-08-22T03:30:13.010Z,17.07
2018-08-22T03:31:12.999Z,17.11
2018-08-22T03:32:12.989Z,17.10
2018-08-22T03:33:12.974Z,17.13
2018-08-22T03:34:12.967Z,17.17
2018-08-22T03:35:12.986Z,17.26
2018-08-22T03:36:12.938Z,17.18
2018-08-22T03:37:12.931Z,17.22
2018-08-22T03:38:12.914Z,17.23
2018-08-22T03:39:12.909Z,17.20
2018-08-22T03:40:12.897Z,17.20
2018-08-22T03:41:12.901Z,17.32
2018-08-22T03:42:12.874Z,17.30
2018-08-22T03:43:12.852Z,17.38
2018-08-22T03:44:12.841Z,17.40
2018-08-22T03:45:12.839Z,17.32
2018-08-22T03:46:12.842Z,17.41
2018-08-22T03:47:12.819Z,17.48
2018-08-22T03:48:12.800Z,17.48
2018-08-22T03:49:12.791Z,17.29
2018-08-22T03:50:12.774Z,17.50
2018-08-22T03:51:12.798Z,17.47
2018-08-22T03:52:12.754Z,17.53
2018-08-22T03:53:12.739Z,17.44
2018-08-22T03:54:12.731Z,17.44
2018-08-22T03:55:12.716Z,17.53
2018-08-22T03:56:12.702Z,17.46
2018-08-22T03:57:12.735Z,17.53
2018-08-22T03:58:12.679Z,17.51
2018-08-22T03:59:12.679Z,17.66
2018-08-22T04:00:12.664Z,17.63
2018-08-22T04:01:12.642Z,17.57
2018-08-22T04:02:12.639Z,17.53
2018-08-22T04:03:12.644Z,17.64
2018-08-22T04:04:12.612Z,17.59
2018-08-22T04:05:12.602Z,17.57
2018-08-22T04:06:12.592Z,17.64
2018-08-22T04:07:12.572Z,17.67
2018-08-22T04:08:12.589Z,17.63
2018-08-22T04:09:12.552Z,17.74
2018-08-22T04:10:12.536Z,17.71
2018-08-22T04:11:12.533Z,17.66
2018-08-22T04:12:12.512Z,17.73
2018-08-22T04:13:12.534Z,17.73
2018-08-22T04:14:12.499Z,17.76
2018-08-22T04:15:12.480Z,17.71
2018-08-22T04:16:12.474Z,17.70
2018-08-22T04:17:12.455Z,17.76
2018-08-22T04:18:12.443Z,17.73
2018-08-22T04:19:12.457Z,17.71
2018-08-22T04:20:12.423Z,17.78
2018-08-22T04:21:12.408Z,17.69
2018-08-22T04:22:12.399Z,17.70
2018-08-22T04:23:12.386Z,17.73
2018-08-22T04:24:12.404Z,17.73
2018-08-22T04:25:12.367Z,17.70
2018-08-22T04:26:12.349Z,17.66
2018-08-22T04:27:12.340Z,17.71
2018-08-22T04:28:12.331Z,17.66
2018-08-22T04:29:12.316Z,17.57
2018-08-22T04:30:12.332Z,17.59
2018-08-22T04:31:12.287Z,17.57
2018-08-22T04:32:12.279Z,17.55
2018-08-22T04:33:12.272Z,17.54
2018-08-22T04:34:12.252Z,17.59
2018-08-22T04:35:12.278Z,17.43
2018-08-22T04:36:12.232Z,17.43
2018-08-22T04:37:12.222Z,17.54
2018-08-22T04:38:12.207Z,17.43
2018-08-22T04:39:12.200Z,17.35
2018-08-22T04:40:12.183Z,17.40
2018-08-22T04:41:12.211Z,17.43
2018-08-22T04:42:12.159Z,17.33
2018-08-22T04:43:12.156Z,17.36
2018-08-22T04:44:12.139Z,17.32
2018-08-22T04:45:12.127Z,17.35
2018-08-22T04:46:12.111Z,17.23
2018-08-22T04:47:12.129Z,17.22
2018-08-22T04:48:12.136Z,17.28
2018-08-22T04:49:12.077Z,17.26
2018-08-22T04:50:12.076Z,17.06
2018-08-22T04:51:12.053Z,17.13
2018-08-22T04:52:12.081Z,17.17
2018-08-22T04:53:12.034Z,17.08
2018-08-22T04:54:12.019Z,17.11
2018-08-22T04:55:12.016Z,17.11
2018-08-22T04:56:12.005Z,17.08
2018-08-22T04:57:11.988Z,17.03
2018-08-22T04:58:12.008Z,17.11
2018-08-22T04:59:11.964Z,17.00
2018-08-22T05:00:11.953Z,16.99
2018-08-22T05:01:11.944Z,16.93
2018-08-22T05:02:11.931Z,16.98
2018-08-22T05:03:11.914Z,17.11
2018-08-22T05:04:11.941Z,16.99
2018-08-22T05:05:11.900Z,16.96
2018-08-22T05:06:11.887Z,16.90
2018-08-22T05:07:11.874Z,16.95
2018-08-22T05:08:11.866Z,17.03
2018-08-22T05:09:11.846Z,17.00
2018-08-22T05:10:11.859Z,16.92
2018-08-22T05:11:11.828Z,16.89
2018-08-22T05:12:11.810Z,16.93
2018-08-22T05:13:11.808Z,16.89
2018-08-22T05:14:11.793Z,16.98
2018-08-22T05:15:11.805Z,16.95
2018-08-22T05:16:11.765Z,16.95
2018-08-22T05:17:11.758Z,16.92
2018-08-22T05:18:11.747Z,16.92
2018-08-22T05:19:11.731Z,16.90
2018-08-22T05:20:11.759Z,16.92
2018-08-22T05:21:11.705Z,17.00
2018-08-22T05:22:11.698Z,16.99
2018-08-22T05:23:11.682Z,16.92
2018-08-22T05:24:11.677Z,16.98
2018-08-22T05:25:11.664Z,16.78
2018-08-22T05:26:11.683Z,16.96
2018-08-22T05:27:11.646Z,16.95
2018-08-22T05:28:11.627Z,16.95
2018-08-22T05:29:11.620Z,16.98
2018-08-22T05:30:11.675Z,16.89
2018-08-22T05:31:11.590Z,16.98
2018-08-22T05:32:11.611Z,16.93
2018-08-22T05:33:11.576Z,16.96
2018-08-22T05:34:11.565Z,17.04
2018-08-22T05:35:11.544Z,17.03
2018-08-22T05:36:11.532Z,16.99
2018-08-22T05:37:11.553Z,17.00
2018-08-22T05:38:11.507Z,17.10
2018-08-22T05:39:11.499Z,17.11
2018-08-22T05:40:11.494Z,17.14
2018-08-22T05:41:11.472Z,17.13
2018-08-22T05:42:11.503Z,17.20
2018-08-22T05:43:11.449Z,17.22
2018-08-22T05:44:11.446Z,17.14
2018-08-22T05:45:11.429Z,17.25
2018-08-22T05:46:11.424Z,17.18
2018-08-22T05:47:11.403Z,17.25
2018-08-22T05:48:11.412Z,17.32
2018-08-22T05:49:11.409Z,17.38
2018-08-22T05:50:11.365Z,17.33
2018-08-22T05:51:11.362Z,17.48
2018-08-22T05:52:11.346Z,17.48
2018-08-22T05:53:11.368Z,17.51
2018-08-22T05:54:11.324Z,17.59
2018-08-22T05:55:11.305Z,17.54
2018-08-22T05:56:11.296Z,17.64
2018-08-22T05:57:11.290Z,17.66
2018-08-22T05:58:11.269Z,17.73
2018-08-22T05:59:11.301Z,17.76
2018-08-22T06:00:11.248Z,17.84
2018-08-22T06:01:11.241Z,17.87
2018-08-22T06:02:11.224Z,17.99
2018-08-22T06:03:11.238Z,18.02
2018-08-22T06:04:11.201Z,17.91
2018-08-22T06:05:11.225Z,17.97
2018-08-22T06:06:11.178Z,18.07
2018-08-22T06:07:11.168Z,18.04
2018-08-22T06:08:11.158Z,18.27
2018-08-22T06:09:11.211Z,18.06
2018-08-22T06:10:11.129Z,18.18
2018-08-22T06:11:11.143Z,18.18
2018-08-22T06:12:11.113Z,18.33
2018-08-22T06:13:11.095Z,18.34
2018-08-22T06:14:11.090Z,18.42
2018-08-22T06:15:11.073Z,18.46
2018-08-22T06:16:11.082Z,18.43
2018-08-22T06:17:11.059Z,18.52
2018-08-22T06:18:11.036Z,18.68
2018-08-22T06:19:11.032Z,18.73
2018-08-22T06:20:11.018Z,18.73
2018-08-22T06:21:11.027Z,18.72
2018-08-22T06:22:10.994Z,18.99
2018-08-22T06:23:10.978Z,18.92
2018-08-22T06:24:10.968Z,19.17
2018-08-22T06:25:10.959Z,19.11
2018-08-22T06:26:10.979Z,19.29
2018-08-22T06:27:10.935Z,19.50
2018-08-22T06:28:10.925Z,19.53
2018-08-22T06:29:10.914Z,19.65
2018-08-22T06:30:10.894Z,19.68
2018-08-22T06:31:10.892Z,19.83
2018-08-22T06:32:10.904Z,19.87
2018-08-22T06:33:10.861Z,19.90
2018-08-22T06:34:10.858Z,20.05
2018-08-22T06:35:10.839Z,20.06
2018-08-22T06:36:10.849Z,20.13
2018-08-22T06:37:10.895Z,20.27
2018-08-22T06:38:10.808Z,20.42
2018-08-22T06:39:10.798Z,20.47
2018-08-22T06:40:10.787Z,20.42
2018-08-22T06:41:10.773Z,20.62
2018-08-22T06:42:10.768Z,20.69
2018-08-22T06:43:10.785Z,20.69
2018-08-22T06:44:10.761Z,20.72
2018-08-22T06:45:10.726Z,20.91
2018-08-22T06:46:10.722Z,20.98
2018-08-22T06:47:10.699Z,21.02
2018-08-22T06:48:10.688Z,21.05
2018-08-22T06:49:10.721Z,21.13
2018-08-22T06:50:10.707Z,21.21
2018-08-22T06:51:10.661Z,21.32
2018-08-22T06:52:10.641Z,21.32
2018-08-22T06:53:10.638Z,21.35
2018-08-22T06:54:10.627Z,21.48
2018-08-22T06:55:10.638Z,21.60
2018-08-22T06:56:10.598Z,21.60
2018-08-22T06:57:10.593Z,21.64
2018-08-22T06:58:10.575Z,21.78
2018-08-22T06:59:10.596Z,21.82
2018-08-22T07:00:10.550Z,21.94
2018-08-22T07:01:10.546Z,22.07
2018-08-22T07:02:10.533Z,22.06
2018-08-22T07:03:10.517Z,22.12
2018-08-22T07:04:10.515Z,22.27
2018-08-22T07:05:10.518Z,22.44
2018-08-22T07:06:10.488Z,22.38
2018-08-22T07:07:10.474Z,22.46
2018-08-22T07:08:10.513Z,22.50
2018-08-22T07:09:10.445Z,22.65
2018-08-22T07:10:10.474Z,22.80
2018-08-22T07:11:10.428Z,22.83
2018-08-22T07:12:10.417Z,22.87
2018-08-22T07:13:10.401Z,23.01
2018-08-22T07:14:10.504Z,23.07
2018-08-22T07:15:10.388Z,23.19
2018-08-22T07:16:10.393Z,23.24
2018-08-22T07:17:10.359Z,23.19
2018-08-22T07:18:10.346Z,23.42
2018-08-22T07:19:10.338Z,23.42
2018-08-22T07:20:10.327Z,23.43
2018-08-22T07:21:10.335Z,23.62
2018-08-22T07:22:10.303Z,23.68
2018-08-22T07:23:10.289Z,23.67
2018-08-22T07:24:10.281Z,23.75
2018-08-22T07:25:10.265Z,23.85
2018-08-22T07:26:10.283Z,23.92
2018-08-22T07:27:10.242Z,24.14
2018-08-22T07:28:10.230Z,24.34
2018-08-22T07:29:10.223Z,24.34
2018-08-22T07:30:10.259Z,24.53
2018-08-22T07:31:10.233Z,24.52
2018-08-22T07:32:10.189Z,24.60
2018-08-22T07:33:10.175Z,24.73
2018-08-22T07:34:10.161Z,24.80
2018-08-22T07:35:10.201Z,24.92
2018-08-22T07:36:10.148Z,25.10
2018-08-22T07:37:10.158Z,25.05
2018-08-22T07:38:10.126Z,25.16
2018-08-22T07:39:10.106Z,25.25
2018-08-22T07:40:10.097Z,25.47
2018-08-22T07:41:10.090Z,25.47
2018-08-22T07:42:10.107Z,25.56
2018-08-22T07:43:10.067Z,25.57
2018-08-22T07:44:10.055Z,25.62
2018-08-22T07:45:10.042Z,25.75
2018-08-22T07:46:10.034Z,25.83
2018-08-22T07:47:10.090Z,25.87
2018-08-22T07:48:10.040Z,25.97
2018-08-22T07:49:10.002Z,26.15
2018-08-22T07:50:10.038Z,26.18
2018-08-22T07:51:09.977Z,26.27
2018-08-22T07:52:09.967Z,26.29
2018-08-22T07:53:09.990Z,26.36
2018-08-22T07:54:09.976Z,26.47
2018-08-22T07:55:09.930Z,26.67
2018-08-22T07:56:09.932Z,26.79
2018-08-22T07:57:09.913Z,26.81
2018-08-22T07:58:09.900Z,26.91
2018-08-22T07:59:09.886Z,27.14
2018-08-22T08:00:10.189Z,27.21
2018-08-22T08:01:09.866Z,27.19
2018-08-22T08:02:10.869Z,27.41
2018-08-22T08:03:09.907Z,27.53
2018-08-22T08:04:09.828Z,27.54
2018-08-22T08:05:09.850Z,27.57
2018-08-22T08:06:09.859Z,27.67
2018-08-22T08:07:09.803Z,27.69
2018-08-22T08:08:09.790Z,27.64
2018-08-22T08:09:09.776Z,27.80
2018-08-22T08:10:09.951Z,27.74
2018-08-22T08:11:09.752Z,27.84
2018-08-22T08:12:09.749Z,27.77
2018-08-22T08:13:09.731Z,27.86
2018-08-22T08:14:09.791Z,27.94
2018-08-22T08:15:09.743Z,28.03
2018-08-22T08:16:09.711Z,28.14
2018-08-22T08:17:09.728Z,28.23
2018-08-22T08:18:09.729Z,28.35
2018-08-22T08:19:09.673Z,28.43
2018-08-22T08:20:09.676Z,28.47
2018-08-22T08:21:09.672Z,28.51
2018-08-22T08:22:09.639Z,28.65
2018-08-22T08:23:09.625Z,28.70
2018-08-22T08:24:09.734Z,28.84
2018-08-22T08:25:09.600Z,28.91
2018-08-22T08:26:09.646Z,28.95
2018-08-22T08:27:09.579Z,28.97
2018-08-22T08:28:09.570Z,28.93
2018-08-22T08:29:09.557Z,29.00
2018-08-22T08:30:09.550Z,28.95
2018-08-22T08:31:09.566Z,29.07
2018-08-22T08:32:09.549Z,29.22
2018-08-22T08:33:09.523Z,29.31
2018-08-22T08:34:09.519Z,29.37
2018-08-22T08:35:09.530Z,29.57
2018-08-22T08:36:09.612Z,29.70
2018-08-22T08:37:09.481Z,29.92
2018-08-22T08:38:09.464Z,29.90
2018-08-22T08:39:09.458Z,30.18
2018-08-22T08:40:09.468Z,30.24
2018-08-22T08:41:09.441Z,30.36
2018-08-22T08:42:09.495Z,30.53
2018-08-22T08:43:09.454Z,30.53
2018-08-22T08:44:09.451Z,30.53
2018-08-22T08:45:09.402Z,30.49
2018-08-22T08:46:09.383Z,30.59
2018-08-22T08:47:09.432Z,30.57
2018-08-22T08:48:09.456Z,30.47
2018-08-22T08:49:09.354Z,30.64
2018-08-22T08:50:09.346Z,30.75
2018-08-22T08:51:09.368Z,30.86
2018-08-22T08:52:09.392Z,30.83
2018-08-22T08:53:09.540Z,30.96
2018-08-22T08:54:09.304Z,31.11
2018-08-22T08:55:09.352Z,31.18
2018-08-22T08:56:09.382Z,31.28
2018-08-22T08:57:09.310Z,31.30
2018-08-22T08:58:09.273Z,31.42
2018-08-22T08:59:09.291Z,31.45
2018-08-22T09:00:09.318Z,31.61
2018-08-22T09:01:09.232Z,31.68
2018-08-22T09:02:09.229Z,31.88
2018-08-22T09:03:09.213Z,31.82
2018-08-22T09:04:09.369Z,31.98
2018-08-22T09:05:09.195Z,32.02
2018-08-22T09:06:09.179Z,32.39
2018-08-22T09:07:09.171Z,32.32
2018-08-22T09:08:09.167Z,32.20
2018-08-22T09:09:09.152Z,32.36
2018-08-22T09:10:09.166Z,32.35
2018-08-22T09:11:09.141Z,32.54
2018-08-22T09:12:09.141Z,32.77
2018-08-22T09:13:09.117Z,32.77
2018-08-22T09:14:09.106Z,32.84
2018-08-22T09:15:09.127Z,32.79
2018-08-22T09:16:09.078Z,32.59
2018-08-22T09:17:09.110Z,32.57
2018-08-22T09:18:09.065Z,32.47
2018-08-22T09:19:09.056Z,32.17
2018-08-22T09:20:09.041Z,32.15
2018-08-22T09:21:09.139Z,32.32
2018-08-22T09:22:09.120Z,32.35
2018-08-22T09:23:09.010Z,32.52
2018-08-22T09:24:09.112Z,32.70
2018-08-22T09:25:09.096Z,32.77
2018-08-22T09:26:08.981Z,32.79
2018-08-22T09:27:09.011Z,32.98
2018-08-22T09:28:09.027Z,33.15
2018-08-22T09:29:08.986Z,33.30
2018-08-22T09:30:08.942Z,33.37
2018-08-22T09:31:08.935Z,33.41
2018-08-22T09:32:08.922Z,33.10
2018-08-22T09:33:08.941Z,33.03
2018-08-22T09:34:08.964Z,32.93
2018-08-22T09:35:08.939Z,33.10
2018-08-22T09:36:08.879Z,33.04
2018-08-22T09:37:08.879Z,33.27
2018-08-22T09:38:08.890Z,33.61
2018-08-22T09:39:08.970Z,33.76
2018-08-22T09:40:08.900Z,33.95
2018-08-22T09:41:08.830Z,34.00
2018-08-22T09:42:08.849Z,34.09
2018-08-22T09:43:08.894Z,34.34
2018-08-22T09:44:08.839Z,34.45
2018-08-22T09:45:08.791Z,34.58
2018-08-22T09:46:08.791Z,34.74
2018-08-22T09:47:08.780Z,34.79
2018-08-22T09:48:08.770Z,34.81
2018-08-22T09:49:08.765Z,35.10
2018-08-22T09:50:08.866Z,35.13
2018-08-22T09:51:08.838Z,35.30
2018-08-22T09:52:08.807Z,35.40
2018-08-22T09:53:08.708Z,35.64
2018-08-22T09:54:08.708Z,35.74
2018-08-22T09:55:08.771Z,35.89
2018-08-22T09:56:08.708Z,36.03
2018-08-22T09:57:08.683Z,36.03
2018-08-22T09:58:08.754Z,35.99
2018-08-22T09:59:08.706Z,36.04
2018-08-22T10:00:08.775Z,35.99
2018-08-22T10:01:08.698Z,36.21
2018-08-22T10:02:08.630Z,36.27
2018-08-22T10:03:08.686Z,36.33
2018-08-22T10:04:08.624Z,36.48
2018-08-22T10:05:08.602Z,36.56
2018-08-22T10:06:08.618Z,36.46
2018-08-22T10:07:08.795Z,36.43
2018-08-22T10:08:08.653Z,36.38
2018-08-22T10:09:08.573Z,36.42
2018-08-22T10:10:08.560Z,36.36
2018-08-22T10:11:08.548Z,36.23
2018-08-22T10:12:08.579Z,36.29
2018-08-22T10:13:08.527Z,36.29
2018-08-22T10:14:08.696Z,36.20
2018-08-22T10:15:08.509Z,36.17
2018-08-22T10:16:08.499Z,35.91
2018-08-22T10:17:08.503Z,35.85
2018-08-22T10:18:08.511Z,35.73
2018-08-22T10:19:08.513Z,35.54
2018-08-22T10:20:08.552Z,35.37
2018-08-22T10:21:08.460Z,35.08
2018-08-22T10:22:08.449Z,34.81
2018-08-22T10:23:08.459Z,34.73
2018-08-22T10:24:08.456Z,34.45
2018-08-22T10:25:08.412Z,34.36
2018-08-22T10:26:08.410Z,34.42
2018-08-22T10:27:08.471Z,34.56
2018-08-22T10:28:08.525Z,34.70
2018-08-22T10:29:08.373Z,34.64
2018-08-22T10:30:08.383Z,34.70
2018-08-22T10:31:08.380Z,34.46
2018-08-22T10:32:08.346Z,34.51
2018-08-22T10:33:08.404Z,34.69
2018-08-22T10:34:08.325Z,34.69
2018-08-22T10:35:08.424Z,34.72
2018-08-22T10:36:08.353Z,34.72
2018-08-22T10:37:08.289Z,34.72
2018-08-22T10:38:08.281Z,34.56
2018-08-22T10:39:08.278Z,34.63
2018-08-22T10:40:08.387Z,34.70
2018-08-22T10:41:08.252Z,34.81
2018-08-22T10:42:08.231Z,34.70
2018-08-22T10:43:08.275Z,34.60
2018-08-22T10:44:08.286Z,34.70
2018-08-22T10:45:08.237Z,34.61
2018-08-22T10:46:08.190Z,34.44
2018-08-22T10:47:08.182Z,34.42
2018-08-22T10:48:08.197Z,34.34
2018-08-22T10:49:08.157Z,34.46
2018-08-22T10:50:08.153Z,34.41
2018-08-22T10:51:08.163Z,34.32
2018-08-22T10:52:08.122Z,34.32
2018-08-22T10:53:08.117Z,34.26
2018-08-22T10:54:08.107Z,34.27
2018-08-22T10:55:08.093Z,34.26
2018-08-22T10:56:08.121Z,34.11
2018-08-22T10:57:08.068Z,34.29
2018-08-22T10:58:08.061Z,34.24
2018-08-22T10:59:08.051Z,34.22
2018-08-22T11:00:08.041Z,34.23
2018-08-22T11:01:08.032Z,34.17
2018-08-22T11:02:08.046Z,33.97
2018-08-22T11:03:08.012Z,33.90
2018-08-22T11:04:08.001Z,34.07
2018-08-22T11:05:07.981Z,34.01
2018-08-22T11:06:07.982Z,34.01
2018-08-22T11:07:07.957Z,34.00
2018-08-22T11:08:07.979Z,34.14
2018-08-22T11:09:07.937Z,34.08
2018-08-22T11:10:07.934Z,34.11
2018-08-22T11:11:07.916Z,34.11
2018-08-22T11:12:07.903Z,34.22
2018-08-22T11:13:07.933Z,34.26
2018-08-22T11:14:07.884Z,34.42
2018-08-22T11:15:07.878Z,34.38
2018-08-22T11:16:07.940Z,34.29
2018-08-22T11:17:07.848Z,34.29
2018-08-22T11:18:07.840Z,34.27
2018-08-22T11:19:07.865Z,34.19
2018-08-22T11:20:07.815Z,34.32
2018-08-22T11:21:07.813Z,34.41
2018-08-22T11:22:07.799Z,34.36
2018-08-22T11:23:07.784Z,34.42
2018-08-22T11:24:07.771Z,34.36
2018-08-22T11:25:07.793Z,34.29
2018-08-22T11:26:07.749Z,34.23
2018-08-22T11:27:07.746Z,34.19
2018-08-22T11:28:07.738Z,34.20
2018-08-22T11:29:07.715Z,34.13
2018-08-22T11:30:07.744Z,34.09
2018-08-22T11:31:07.693Z,34.19
2018-08-22T11:32:07.689Z,34.04
2018-08-22T11:33:07.674Z,34.00
2018-08-22T11:34:07.664Z,34.04
2018-08-22T11:35:07.652Z,34.09
2018-08-22T11:36:07.665Z,34.09
2018-08-22T11:37:07.643Z,33.90
2018-08-22T11:38:07.618Z,34.07
2018-08-22T11:39:07.610Z,33.94
2018-08-22T11:40:07.601Z,33.98
2018-08-22T11:41:07.622Z,34.17
2018-08-22T11:42:07.579Z,34.20
2018-08-22T11:43:07.559Z,34.09
2018-08-22T11:44:07.548Z,34.20
2018-08-22T11:45:07.547Z,34.11
2018-08-22T11:46:07.525Z,33.94
2018-08-22T11:47:07.556Z,33.89
2018-08-22T11:48:07.506Z,33.79
2018-08-22T11:49:07.498Z,33.82
2018-08-22T11:50:07.490Z,33.86
2018-08-22T11:51:07.469Z,33.92
2018-08-22T11:52:07.465Z,33.85
2018-08-22T11:53:07.474Z,33.92
2018-08-22T11:54:07.435Z,34.00
2018-08-22T11:55:07.435Z,33.97
2018-08-22T11:56:07.457Z,34.00
2018-08-22T11:57:07.414Z,34.00
2018-08-22T11:58:07.430Z,34.04
2018-08-22T11:59:07.383Z,33.76
2018-08-22T12:00:07.378Z,33.73
2018-08-22T12:01:07.359Z,33.67
2018-08-22T12:02:07.350Z,33.79
2018-08-22T12:03:07.342Z,33.82
2018-08-22T12:04:07.363Z,33.89
2018-08-22T12:05:07.316Z,33.78
2018-08-22T12:06:07.308Z,33.82
2018-08-22T12:07:07.294Z,33.74
2018-08-22T12:08:07.283Z,33.76
2018-08-22T12:09:07.276Z,33.82
2018-08-22T12:10:07.285Z,33.80
2018-08-22T12:11:07.253Z,33.85
2018-08-22T12:12:07.245Z,33.90
2018-08-22T12:13:07.224Z,34.07
2018-08-22T12:14:07.222Z,34.27
2018-08-22T12:15:07.235Z,34.34
2018-08-22T12:16:07.245Z,34.56
2018-08-22T12:17:07.188Z,34.77
2018-08-22T12:18:07.170Z,34.83
2018-08-22T12:19:07.167Z,34.76
2018-08-22T12:20:07.150Z,34.88
2018-08-22T12:21:07.166Z,34.86
2018-08-22T12:22:07.128Z,34.79
2018-08-22T12:23:07.202Z,34.83
2018-08-22T12:24:07.109Z,35.06
2018-08-22T12:25:07.094Z,35.15
2018-08-22T12:26:07.116Z,35.28
2018-08-22T12:27:07.072Z,35.48
2018-08-22T12:28:07.058Z,35.50
2018-08-22T12:29:07.058Z,35.73
2018-08-22T12:30:07.038Z,35.66
2018-08-22T12:31:07.049Z,35.86
2018-08-22T12:32:07.061Z,35.86
2018-08-22T12:33:07.004Z,36.00
2018-08-22T12:34:07.003Z,36.00
2018-08-22T12:35:06.986Z,36.01
2018-08-22T12:36:06.980Z,35.91
2018-08-22T12:37:06.971Z,35.89
2018-08-22T12:38:06.987Z,35.62
2018-08-22T12:39:06.942Z,35.63
2018-08-22T12:40:06.936Z,35.67
2018-08-22T12:41:06.916Z,35.66
2018-08-22T12:42:06.908Z,35.70
2018-08-22T12:43:06.900Z,35.81
2018-08-22T12:44:06.917Z,35.91
2018-08-22T12:45:06.873Z,36.12
2018-08-22T12:46:06.864Z,36.17
2018-08-22T12:47:06.854Z,36.07
2018-08-22T12:48:06.839Z,36.26
2018-08-22T12:49:06.860Z,36.21
2018-08-22T12:50:06.824Z,36.20
2018-08-22T12:51:06.809Z,36.29
2018-08-22T12:52:06.809Z,36.38